createdAt,value
2022-09-06T00:02:13.164Z,100154.06
2022-09-06T00:04:41.036Z,100152.38
2022-09-06T00:07:08.842Z,100148.97
2022-09-06T00:09:36.645Z,100153.16
2022-09-06T00:12:04.788Z,100150.59
2022-09-06T00:14:32.649Z,100148.91
2022-09-06T00:17:00.477Z,100153.16
2022-09-06T00:19:29.653Z,100140.50
2022-09-06T00:21:57.491Z,100141.38
2022-09-06T00:24:25.485Z,100141.38
2022-09-06T00:26:53.295Z,100140.56
2022-09-06T00:29:21.169Z,100146.47
2022-09-06T00:31:48.997Z,100136.34
2022-09-06T00:34:16.870Z,100143.94
2022-09-06T00:36:46.014Z,100143.06
2022-09-06T00:39:13.845Z,100146.41
2022-09-06T00:41:41.820Z,100151.47
2022-09-06T00:44:09.634Z,100151.44
2022-09-06T00:46:40.787Z,100148.03
2022-09-06T00:49:12.135Z,100128.56
2022-09-06T00:51:41.238Z,100147.13
2022-09-06T00:54:10.887Z,100148.78
2022-09-06T00:56:43.140Z,100148.78
2022-09-06T00:59:11.314Z,100135.25
2022-09-06T01:01:39.367Z,100147.84
2022-09-06T01:04:07.838Z,100131.66
2022-09-06T01:06:45.868Z,100133.38
2022-09-06T01:09:25.432Z,100136.72
2022-09-06T01:12:05.820Z,100131.66
2022-09-06T01:14:45.740Z,100130.84
2022-09-06T01:17:22.837Z,100137.59
2022-09-06T01:20:19.203Z,100140.97
2022-09-06T01:23:13.632Z,100130.03
2022-09-06T01:25:59.908Z,100135.88
2022-09-06T01:28:34.253Z,100129.16
2022-09-06T01:31:25.350Z,100126.63
2022-09-06T01:34:12.255Z,100132.53
2022-09-06T01:37:08.585Z,100131.72
2022-09-06T01:39:37.109Z,100135.19
2022-09-06T01:42:09.010Z,100132.69
2022-09-06T01:44:42.170Z,100133.53
2022-09-06T01:47:21.037Z,100128.44
2022-09-06T01:50:01.613Z,100116.69
2022-09-06T01:52:36.768Z,100125.94
2022-09-06T01:55:17.829Z,100122.53
2022-09-06T01:58:09.735Z,100117.47
2022-09-06T02:00:47.709Z,100118.34
2022-09-06T02:03:26.037Z,100120.91
2022-09-06T02:05:59.159Z,100120.03
2022-09-06T02:08:32.423Z,100126.75
2022-09-06T02:11:02.875Z,100119.16
2022-09-06T02:13:34.380Z,100118.28
2022-09-06T02:16:05.992Z,100119.94
2022-09-06T02:18:40.349Z,100121.56
2022-09-06T02:21:11.358Z,100122.34
2022-09-06T02:23:41.339Z,100130.72
2022-09-06T02:26:13.953Z,100124.81
2022-09-06T02:28:41.962Z,100121.38
2022-09-06T02:31:16.087Z,100132.28
2022-09-06T02:33:47.089Z,100122.91
2022-09-06T02:36:15.803Z,100132.19
2022-09-06T02:38:45.089Z,100121.25
2022-09-06T02:41:15.172Z,100133.13
2022-09-06T02:43:43.977Z,100130.59
2022-09-06T02:46:13.703Z,100128.88
2022-09-06T02:48:41.665Z,100124.66
2022-09-06T02:51:10.730Z,100107.75
2022-09-06T02:53:39.411Z,100129.72
2022-09-06T02:56:07.724Z,100112.00
2022-09-06T02:58:35.996Z,100107.09
2022-09-06T03:01:04.028Z,100108.06
2022-09-06T03:03:33.318Z,100108.13
2022-09-06T03:06:01.201Z,100106.47
2022-09-06T03:08:33.365Z,100118.28
2022-09-06T03:11:02.147Z,100104.81
2022-09-06T03:13:30.032Z,100104.81
2022-09-06T03:15:59.832Z,100101.47
2022-09-06T03:18:29.624Z,100098.09
2022-09-06T03:20:59.543Z,100104.88
2022-09-06T03:23:29.451Z,100098.09
2022-09-06T03:25:57.909Z,100091.34
2022-09-06T03:28:25.962Z,100097.22
2022-09-06T03:30:54.240Z,100099.78
2022-09-06T03:33:22.718Z,100081.06
2022-09-06T03:35:52.033Z,100088.72
2022-09-06T03:38:21.897Z,100089.50
2022-09-06T03:40:50.288Z,100095.28
2022-09-06T03:43:18.827Z,100086.78
2022-09-06T03:45:47.766Z,100081.72
2022-09-06T03:48:16.542Z,100077.53
2022-09-06T03:50:46.917Z,100069.13
2022-09-06T03:53:15.824Z,100066.63
2022-09-06T03:55:47.339Z,100081.84
2022-09-06T03:58:15.413Z,100076.75
2022-09-06T04:00:43.437Z,100085.06
2022-09-06T04:03:11.763Z,100077.38
2022-09-06T04:05:39.656Z,100081.50
2022-09-06T04:08:07.785Z,100079.88
2022-09-06T04:10:35.597Z,100073.22
2022-09-06T04:13:04.880Z,100074.13
2022-09-06T04:15:32.799Z,100076.66
2022-09-06T04:18:00.735Z,100081.63
2022-09-06T04:20:28.565Z,100086.56
2022-09-06T04:22:56.430Z,100081.50
2022-09-06T04:25:24.298Z,100083.25
2022-09-06T04:27:52.154Z,100078.22
2022-09-06T04:30:21.364Z,100086.72
2022-09-06T04:32:49.227Z,100091.84
2022-09-06T04:35:17.189Z,100084.25
2022-09-06T04:37:45.106Z,100088.47
2022-09-06T04:40:13.443Z,100089.19
2022-09-06T04:42:41.357Z,100097.56
2022-09-06T04:45:10.417Z,100099.22
2022-09-06T04:47:39.865Z,100105.13
2022-09-06T04:50:08.810Z,100100.94
2022-09-06T04:52:36.697Z,100101.78
2022-09-06T04:55:05.379Z,100090.84
2022-09-06T04:57:33.353Z,100093.44
2022-09-06T05:00:01.346Z,100097.63
2022-09-06T05:02:29.501Z,100090.91
2022-09-06T05:04:58.909Z,100088.47
2022-09-06T05:07:27.460Z,100099.44
2022-09-06T05:09:55.433Z,100095.28
2022-09-06T05:12:23.399Z,100091.97
2022-09-06T05:14:51.364Z,100092.00
2022-09-06T05:17:19.247Z,100086.16
2022-09-06T05:19:47.856Z,100087.91
2022-09-06T05:22:17.122Z,100095.53
2022-09-06T05:24:46.365Z,100093.88
2022-09-06T05:27:14.332Z,100093.03
2022-09-06T05:29:42.210Z,100085.41
2022-09-06T05:32:10.155Z,100086.25
2022-09-06T05:34:38.036Z,100087.09
2022-09-06T05:37:06.092Z,100079.53
2022-09-06T05:39:35.492Z,100085.44
2022-09-06T05:42:06.646Z,100087.97
2022-09-06T05:44:34.937Z,100089.63
2022-09-06T05:47:02.939Z,100083.69
2022-09-06T05:49:31.260Z,100083.72
2022-09-06T05:51:59.389Z,100077.84
2022-09-06T05:54:27.278Z,100079.53
2022-09-06T05:56:56.426Z,100081.25
2022-09-06T05:59:24.308Z,100084.63
2022-09-06T06:01:54.012Z,100080.44
2022-09-06T06:04:23.017Z,100078.78
2022-09-06T06:06:51.215Z,100082.16
2022-09-06T06:09:19.161Z,100091.44
2022-09-06T06:11:46.992Z,100093.13
2022-09-06T06:14:16.172Z,100083.84
2022-09-06T06:16:44.111Z,100099.91
2022-09-06T06:19:11.985Z,100100.78
2022-09-06T06:21:39.816Z,100094.88
2022-09-06T06:24:07.956Z,100089.81
2022-09-06T06:26:37.241Z,100091.50
2022-09-06T06:29:08.193Z,100093.25
2022-09-06T06:31:39.152Z,100083.13
2022-09-06T06:34:07.313Z,100089.88
2022-09-06T06:36:36.621Z,100093.25
2022-09-06T06:39:08.363Z,100090.72
2022-09-06T06:41:36.485Z,100090.72
2022-09-06T06:44:06.089Z,100101.69
2022-09-06T06:46:35.660Z,100105.91
2022-09-06T06:49:05.296Z,100104.22
2022-09-06T06:51:37.031Z,100110.97
2022-09-06T06:54:05.358Z,100118.56
2022-09-06T06:56:35.005Z,100118.56
2022-09-06T06:59:05.138Z,100096.56
2022-09-06T07:01:34.162Z,100118.50
2022-09-06T07:04:02.208Z,100120.09
2022-09-06T07:09:21.441Z,100106.31
2022-09-06T07:11:50.024Z,100109.59
2022-09-06T07:14:18.343Z,100111.19
2022-09-06T07:16:46.937Z,100098.44
2022-09-06T07:22:05.763Z,100113.75
2022-09-06T07:24:34.247Z,100114.50
2022-09-06T07:29:49.894Z,100116.03
2022-09-06T07:32:17.712Z,100110.91
2022-09-06T07:34:45.549Z,100112.56
2022-09-06T07:37:14.730Z,100106.56
2022-09-06T07:39:42.679Z,100109.88
2022-09-06T07:42:10.632Z,100115.69
2022-09-06T07:44:38.459Z,100112.91
2022-09-06T07:55:34.033Z,100099.84
2022-09-06T07:58:01.873Z,100098.22
2022-09-06T08:00:29.823Z,100094.88
2022-09-06T08:02:57.679Z,100095.69
2022-09-06T08:11:02.593Z,100096.41
2022-09-06T08:13:30.515Z,100089.63
2022-09-06T08:16:01.625Z,100083.84
2022-09-06T08:18:29.573Z,100101.56
2022-09-06T08:20:57.393Z,100098.25
2022-09-06T08:23:26.533Z,100100.88
2022-09-06T08:25:58.504Z,100099.22
2022-09-06T08:28:28.798Z,100096.75
2022-09-06T08:30:57.171Z,100098.50
2022-09-06T08:33:25.637Z,100095.16
2022-09-06T08:35:57.236Z,100091.81
2022-09-06T08:38:26.670Z,100090.97
2022-09-06T08:40:56.167Z,100091.03
2022-09-06T08:43:24.178Z,100082.66
2022-09-06T08:45:57.342Z,100092.75
2022-09-06T08:48:30.407Z,100085.97
2022-09-06T08:51:11.903Z,100097.78
2022-09-06T08:53:46.416Z,100092.66
2022-09-06T08:56:21.135Z,100094.34
2022-09-06T08:59:03.933Z,100090.91
2022-09-06T09:01:38.994Z,100089.13
2022-09-06T09:04:12.663Z,100088.22
2022-09-06T09:06:40.506Z,100091.47
2022-09-06T09:09:15.939Z,100083.84
2022-09-06T09:11:48.185Z,100087.25
2022-09-06T09:14:19.909Z,100074.53
2022-09-06T09:16:51.376Z,100073.88
2022-09-06T09:19:19.229Z,100064.69
2022-09-06T09:21:47.273Z,100065.66
2022-09-06T09:24:16.921Z,100054.78
2022-09-06T09:26:52.102Z,100069.94
2022-09-06T09:29:25.367Z,100059.91
2022-09-06T09:31:56.460Z,100065.03
2022-09-06T09:34:33.597Z,100065.09
2022-09-06T09:40:13.843Z,100087.38
2022-09-06T09:42:42.003Z,100080.78
2022-09-06T09:45:25.349Z,100103.88
2022-09-06T09:47:53.462Z,100110.03
2022-09-06T09:50:27.991Z,100105.03
2022-09-06T09:52:56.368Z,100094.09
2022-09-06T09:55:27.352Z,100078.06
2022-09-06T09:57:56.254Z,100072.06
2022-09-06T10:00:35.910Z,100074.50
2022-09-06T10:03:13.245Z,100089.63
2022-09-06T10:05:42.444Z,100085.34
2022-09-06T10:08:13.319Z,100081.94
2022-09-06T10:10:47.471Z,100100.59
2022-09-06T10:13:20.194Z,100092.25
2022-09-06T10:15:49.856Z,100094.81
2022-09-06T10:18:30.709Z,100094.84
2022-09-06T10:21:01.901Z,100110.06
2022-09-06T10:26:36.272Z,100094.09
2022-09-06T10:29:07.037Z,100098.31
2022-09-06T10:31:53.205Z,100094.09
2022-09-06T10:34:55.762Z,100090.69
2022-09-06T10:37:41.537Z,100101.66
2022-09-06T10:40:11.898Z,100116.88
2022-09-06T10:42:46.860Z,100116.88
2022-09-06T10:45:28.374Z,100115.19
2022-09-06T10:47:59.505Z,100108.41
2022-09-06T10:50:35.536Z,100108.41
2022-09-06T10:53:11.582Z,100100.78
2022-09-06T10:55:41.200Z,100096.56
2022-09-06T11:00:46.722Z,100052.50
2022-09-06T11:06:13.936Z,100047.94
2022-09-06T11:08:48.084Z,100056.31
2022-09-06T11:11:23.178Z,100055.38
2022-09-06T11:13:52.365Z,100051.91
2022-09-06T11:16:25.774Z,100047.59
2022-09-06T11:18:58.960Z,100055.19
2022-09-06T11:22:14.413Z,100047.47
2022-09-06T11:24:57.481Z,100041.34
2022-09-06T11:27:35.753Z,100036.97
2022-09-06T11:30:06.843Z,100038.50
2022-09-06T11:32:40.064Z,100047.00
2022-09-06T11:35:11.192Z,100043.75
2022-09-06T11:37:42.871Z,100036.22
2022-09-06T11:43:45.407Z,100021.09
2022-09-06T11:46:58.607Z,100022.69
2022-09-06T11:49:31.780Z,100027.72
2022-09-06T11:51:59.873Z,100024.47
2022-09-06T11:54:39.178Z,100027.22
2022-09-06T11:57:15.364Z,100023.88
2022-09-06T11:59:54.961Z,100026.44
2022-09-06T12:02:38.990Z,100023.00
2022-09-06T12:05:29.263Z,100034.13
2022-09-06T12:08:29.084Z,100024.09
2022-09-06T12:11:03.029Z,100027.53
2022-09-06T12:13:42.668Z,100036.03
2022-09-06T12:16:12.212Z,100031.81
2022-09-06T12:19:01.461Z,100030.81
2022-09-06T12:21:52.341Z,100029.94
2022-09-06T12:24:55.903Z,100031.72
2022-09-06T12:27:25.345Z,100027.56
2022-09-06T12:29:58.035Z,100030.16
2022-09-06T12:32:36.200Z,100030.22
2022-09-06T12:38:03.751Z,100031.09
2022-09-06T12:40:35.213Z,100025.19
2022-09-06T12:43:04.774Z,100015.03
2022-09-06T12:45:32.909Z,100013.38
2022-09-06T12:48:09.807Z,100019.28
2022-09-06T12:50:40.412Z,100002.44
2022-09-06T12:53:24.381Z,99999.91
2022-09-06T12:56:04.342Z,100000.81
2022-09-06T12:58:32.504Z,99994.03
2022-09-06T13:01:10.173Z,99989.03
2022-09-06T13:03:42.269Z,99994.13
2022-09-06T13:06:19.627Z,100005.16
2022-09-06T13:08:51.576Z,100004.31
2022-09-06T13:11:25.228Z,100000.06
2022-09-06T13:13:54.865Z,99984.88
2022-09-06T13:16:24.632Z,99986.56
2022-09-06T13:18:52.689Z,99974.75
2022-09-06T13:21:32.755Z,99993.34
2022-09-06T13:24:03.917Z,100006.03
2022-09-06T13:26:37.465Z,99988.25
2022-09-06T13:29:23.273Z,99969.59
2022-09-06T13:31:53.327Z,99964.47
2022-09-06T13:34:23.151Z,99955.19
2022-09-06T13:36:54.305Z,99949.31
2022-09-06T13:39:35.867Z,99950.19
2022-09-06T13:42:07.499Z,99962.03
2022-09-06T13:44:36.363Z,99956.94
2022-09-06T13:47:04.725Z,99945.03
2022-09-06T13:49:33.769Z,99933.91
2022-09-06T13:52:05.337Z,99926.16
2022-09-06T13:54:33.895Z,99909.22
2022-09-06T13:57:01.925Z,99922.59
2022-09-06T13:59:31.452Z,99923.31
2022-09-06T14:02:03.543Z,99910.31
2022-09-06T14:04:31.914Z,99902.81
2022-09-06T14:07:00.182Z,99896.47
2022-09-06T14:09:29.746Z,99891.16
2022-09-06T14:12:34.566Z,99891.91
2022-09-06T14:15:02.754Z,99910.63
2022-09-06T14:17:30.754Z,99937.13
2022-09-06T14:19:58.702Z,99934.34
2022-09-06T14:22:26.600Z,99929.56
2022-09-06T14:24:55.840Z,99913.66
2022-09-06T14:27:23.790Z,99919.59
2022-09-06T14:29:51.806Z,99920.59
2022-09-06T14:32:22.568Z,99914.00
2022-09-06T14:34:50.643Z,99921.63
2022-09-06T14:37:18.580Z,99924.88
2022-09-06T14:40:27.127Z,99916.25
2022-09-06T14:42:57.958Z,99919.56
2022-09-06T14:45:25.876Z,99912.63
2022-09-06T14:47:53.832Z,99900.66
2022-09-06T14:50:21.748Z,99905.63
2022-09-06T14:52:49.728Z,99910.41
2022-09-06T14:55:17.706Z,99912.63
2022-09-06T14:57:45.936Z,99909.84
2022-09-06T15:00:16.109Z,99912.00
2022-09-06T15:02:44.478Z,99911.59
2022-09-06T15:05:12.421Z,99908.88
2022-09-06T15:07:40.317Z,99902.94
2022-09-06T15:10:08.753Z,99902.28
2022-09-06T15:12:37.371Z,99899.97
2022-09-06T15:15:06.340Z,99894.25
2022-09-06T15:17:36.626Z,99884.31
2022-09-06T15:20:05.838Z,99888.69
2022-09-06T15:22:33.801Z,99887.88
2022-09-06T15:25:01.723Z,99887.13
2022-09-06T15:27:30.104Z,99889.72
2022-09-06T15:29:57.972Z,99883.81
2022-09-06T15:32:25.885Z,99883.84
2022-09-06T15:34:55.194Z,99885.56
2022-09-06T15:37:23.156Z,99888.16
2022-09-06T15:39:51.104Z,99886.63
2022-09-06T15:42:19.066Z,99881.66
2022-09-06T15:44:46.944Z,99883.44
2022-09-06T15:47:14.918Z,99885.22
2022-09-06T15:49:43.006Z,99892.00
2022-09-06T15:52:12.431Z,99886.09
2022-09-06T15:54:57.985Z,99871.72
2022-09-06T15:57:26.031Z,99876.78
2022-09-06T15:59:53.956Z,99874.31
2022-09-06T16:02:22.010Z,99872.66
2022-09-06T16:04:50.018Z,99887.16
2022-09-06T16:07:19.563Z,99877.03
2022-09-06T16:09:47.467Z,99880.50
2022-09-06T16:12:15.412Z,99878.81
2022-09-06T16:14:43.329Z,99880.56
2022-09-06T16:17:12.299Z,99877.16
2022-09-06T16:19:40.841Z,99872.13
2022-09-06T16:22:08.712Z,99871.28
2022-09-06T16:24:39.138Z,99868.75
2022-09-06T16:27:07.154Z,99865.31
2022-09-06T16:29:36.180Z,99868.69
2022-09-06T16:32:04.560Z,99861.91
2022-09-06T16:34:32.480Z,99864.47
2022-09-06T16:37:00.618Z,99861.91
2022-09-06T16:39:28.520Z,99856.81
2022-09-06T16:41:57.775Z,99858.50
2022-09-06T16:44:26.117Z,99848.38
2022-09-06T16:46:55.952Z,99846.72
2022-09-06T16:49:24.434Z,99847.59
2022-09-06T16:51:52.436Z,99842.56
2022-09-06T16:54:21.872Z,99843.41
2022-09-06T16:56:49.767Z,99842.53
2022-09-06T16:59:19.178Z,99839.97
2022-09-06T17:01:47.403Z,99837.44
2022-09-06T17:04:15.885Z,99845.03
2022-09-06T17:06:45.613Z,99837.41
2022-09-06T17:09:14.997Z,99847.66
2022-09-06T17:11:43.075Z,99843.47
2022-09-06T17:14:11.052Z,99847.78
2022-09-06T17:16:57.969Z,99843.59
2022-09-06T17:19:26.493Z,99842.00
2022-09-06T17:21:54.396Z,99849.69
2022-09-06T17:24:22.567Z,99847.25
2022-09-06T17:26:50.721Z,99847.38
2022-09-06T17:29:18.744Z,99854.19
2022-09-06T17:31:49.522Z,99860.16
2022-09-06T17:34:17.796Z,99861.13
2022-09-06T17:36:45.877Z,99865.41
2022-09-06T17:39:15.866Z,99865.50
2022-09-06T17:41:46.749Z,99867.25
2022-09-06T17:44:16.913Z,99876.63
2022-09-06T17:47:02.831Z,99874.13
2022-09-06T17:49:34.979Z,99876.69
2022-09-06T17:52:03.244Z,99878.34
2022-09-06T17:54:31.736Z,99876.69
2022-09-06T17:56:59.708Z,99882.63
2022-09-06T17:59:31.588Z,99886.84
2022-09-06T18:02:02.293Z,99878.41
2022-09-06T18:04:30.227Z,99883.44
2022-09-06T18:06:59.559Z,99882.56
2022-09-06T18:09:27.503Z,99875.00
2022-09-06T18:11:55.462Z,99881.78
2022-09-06T18:14:23.386Z,99879.25
2022-09-06T18:16:52.982Z,99869.13
2022-09-06T18:19:22.274Z,99870.00
2022-09-06T18:21:50.817Z,99872.56
2022-09-06T18:24:20.268Z,99872.59
2022-09-06T18:26:49.062Z,99883.56
2022-09-06T18:29:18.388Z,99883.59
2022-09-06T18:31:46.384Z,99888.66
2022-09-06T18:34:15.933Z,99882.81
2022-09-06T18:36:43.958Z,99888.75
2022-09-06T18:39:13.143Z,99895.56
2022-09-06T18:41:59.717Z,99893.88
2022-09-06T18:44:31.884Z,99892.25
2022-09-06T18:47:01.994Z,99895.63
2022-09-06T18:49:30.772Z,99888.03
2022-09-06T18:51:58.816Z,99897.31
2022-09-06T18:54:26.738Z,99897.28
2022-09-06T18:56:56.060Z,99898.97
2022-09-06T18:59:24.050Z,99893.03
2022-09-06T19:01:52.136Z,99897.25
2022-09-06T19:04:20.873Z,99898.97
2022-09-06T19:06:48.811Z,99902.34
2022-09-06T19:09:17.887Z,99897.25
2022-09-06T19:11:49.268Z,99887.13
2022-09-06T19:14:19.442Z,99893.03
2022-09-06T19:16:48.610Z,99887.13
2022-09-06T19:19:16.601Z,99887.13
2022-09-06T19:21:44.521Z,99877.00
2022-09-06T19:24:14.554Z,99877.88
2022-09-06T19:26:43.927Z,99876.19
2022-09-06T19:29:14.507Z,99871.13
2022-09-06T19:31:44.710Z,99855.94
2022-09-06T19:34:15.211Z,99874.53
2022-09-06T19:36:44.429Z,99872.00
2022-09-06T19:39:15.316Z,99867.78
2022-09-06T19:41:45.093Z,99861.03
2022-09-06T19:44:14.283Z,99873.72
2022-09-06T19:46:46.229Z,99866.94
2022-09-06T19:49:15.568Z,99873.69
2022-09-06T19:51:45.168Z,99877.94
2022-09-06T19:54:15.304Z,99868.66
2022-09-06T19:56:44.697Z,99875.41
2022-09-06T19:59:13.886Z,99854.31
2022-09-06T20:01:44.793Z,99866.13
2022-09-06T20:04:14.436Z,99869.50
2022-09-06T20:06:42.709Z,99866.13
2022-09-06T20:09:11.595Z,99874.53
2022-09-06T20:11:42.125Z,99869.44
2022-09-06T20:14:11.034Z,99872.78
2022-09-06T20:16:41.813Z,99871.94
2022-09-06T20:19:13.074Z,99866.94
2022-09-06T20:21:40.970Z,99868.66
2022-09-06T20:24:09.010Z,99872.03
2022-09-06T20:26:37.670Z,99872.88
2022-09-06T20:29:06.746Z,99874.56
2022-09-06T20:31:36.469Z,99880.47
2022-09-06T20:34:05.661Z,99885.53
2022-09-06T20:36:34.966Z,99888.03
2022-09-06T20:39:03.171Z,99877.09
2022-09-06T20:41:31.085Z,99876.25
2022-09-06T20:44:00.371Z,99879.63
2022-09-06T20:46:29.872Z,99882.16
2022-09-06T20:48:59.763Z,99887.22
2022-09-06T20:51:27.688Z,99877.09
2022-09-06T20:53:58.170Z,99876.25
2022-09-06T20:56:28.017Z,99872.91
2022-09-06T20:58:57.430Z,99875.41
2022-09-06T21:01:27.226Z,99870.34
2022-09-06T21:03:56.936Z,99867.00
2022-09-06T21:06:26.191Z,99856.03
2022-09-06T21:08:54.434Z,99863.59
2022-09-06T21:11:24.307Z,99867.00
2022-09-06T21:13:53.786Z,99861.94
2022-09-06T21:16:24.756Z,99861.09
2022-09-06T21:18:53.693Z,99861.94
2022-09-06T21:21:22.227Z,99848.41
2022-09-06T21:23:50.445Z,99856.84
2022-09-06T21:26:18.925Z,99863.59
2022-09-06T21:28:48.677Z,99865.28
2022-09-06T21:31:18.662Z,99867.75
2022-09-06T21:33:48.194Z,99859.25
2022-09-06T21:36:19.173Z,99870.22
2022-09-06T21:38:48.474Z,99865.16
2022-09-06T21:41:18.163Z,99866.84
2022-09-06T21:43:48.276Z,99857.56
2022-09-06T21:46:18.657Z,99855.03
2022-09-06T21:48:48.153Z,99843.25
2022-09-06T21:51:18.446Z,99843.28
2022-09-06T21:53:49.269Z,99839.09
2022-09-06T21:56:19.562Z,99839.09
2022-09-06T21:58:51.343Z,99843.31
2022-09-06T22:01:19.934Z,99837.44
2022-09-06T22:03:48.221Z,99842.47
2022-09-06T22:06:19.062Z,99836.53
2022-09-06T22:08:47.660Z,99837.34
2022-09-06T22:11:17.908Z,99845.75
2022-09-06T22:13:46.732Z,99834.78
2022-09-06T22:16:17.926Z,99838.97
2022-09-06T22:18:46.705Z,99835.63
2022-09-06T22:21:18.486Z,99839.88
2022-09-06T22:23:50.941Z,99840.72
2022-09-06T22:26:20.252Z,99839.03
2022-09-06T22:28:48.554Z,99838.19
2022-09-06T22:31:18.010Z,99817.03
2022-09-06T22:33:45.970Z,99849.00
2022-09-06T22:36:13.913Z,99847.25
2022-09-06T22:38:41.864Z,99845.56
2022-09-06T22:41:10.075Z,99838.78
2022-09-06T22:43:38.133Z,99833.72
2022-09-06T22:46:07.285Z,99830.41
2022-09-06T22:48:37.143Z,99838.06
2022-09-06T22:51:06.220Z,99836.34
2022-09-06T22:53:34.985Z,99823.75
2022-09-06T22:56:03.848Z,99838.13
2022-09-06T22:58:31.892Z,99841.53
2022-09-06T23:01:07.192Z,99833.84
2022-09-06T23:03:36.758Z,99832.94
2022-09-06T23:06:05.248Z,99836.25
2022-09-06T23:08:34.657Z,99842.09
2022-09-06T23:11:06.807Z,99831.13
2022-09-06T23:13:34.837Z,99826.91
2022-09-06T23:16:04.716Z,99831.97
2022-09-06T23:18:32.823Z,99835.38
2022-09-06T23:21:06.726Z,99836.28
2022-09-06T23:23:35.336Z,99836.31
2022-09-06T23:26:11.882Z,99834.59
2022-09-06T23:28:40.247Z,99841.34
2022-09-06T23:31:10.270Z,99838.00
2022-09-06T23:33:38.377Z,99843.06
2022-09-06T23:36:09.523Z,99832.09
2022-09-06T23:38:39.556Z,99828.78
2022-09-06T23:41:09.828Z,99830.50
2022-09-06T23:43:38.190Z,99827.88
2022-09-06T23:46:06.133Z,99832.06
2022-09-06T23:48:34.174Z,99832.94
2022-09-06T23:51:02.346Z,99826.22
2022-09-06T23:53:31.841Z,99822.84
2022-09-06T23:56:00.105Z,99817.81
2022-09-06T23:58:28.513Z,99818.72
